sensor_id;sensor_type;location;lat;lon;timestamp;temperature;humidity
52127;DHT22;38120;53.176;6.614;2022-11-04T00:01:41;12.00;99.90
52127;DHT22;38120;53.176;6.614;2022-11-04T00:04:08;11.60;99.90
52127;DHT22;38120;53.176;6.614;2022-11-04T00:06:34;11.70;99.90
52127;DHT22;38120;53.176;6.614;2022-11-04T00:09:00;11.70;99.90
52127;DHT22;38120;53.176;6.614;2022-11-04T00:11:26;11.70;99.90
52127;DHT22;38120;53.176;6.614;2022-11-04T00:14:13;11.70;99.90
52127;DHT22;38120;53.176;6.614;2022-11-04T00:16:39;11.70;99.90
52127;DHT22;38120;53.176;6.614;2022-11-04T00:19:23;11.70;99.90
52127;DHT22;38120;53.176;6.614;2022-11-04T00:21:49;11.60;99.90
52127;DHT22;38120;53.176;6.614;2022-11-04T00:24:33;11.60;99.90
52127;DHT22;38120;53.176;6.614;2022-11-04T00:27:19;11.60;99.90
52127;DHT22;38120;53.176;6.614;2022-11-04T00:30:06;11.70;99.90
52127;DHT22;38120;53.176;6.614;2022-11-04T00:32:32;11.60;99.90
52127;DHT22;38120;53.176;6.614;2022-11-04T00:35:17;11.60;99.90
52127;DHT22;38120;53.176;6.614;2022-11-04T00:37:43;11.60;99.90
52127;DHT22;38120;53.176;6.614;2022-11-04T00:40:11;11.60;99.90
52127;DHT22;38120;53.176;6.614;2022-11-04T00:42:37;11.50;99.90
52127;DHT22;38120;53.176;6.614;2022-11-04T00:45:04;11.50;99.90
52127;DHT22;38120;53.176;6.614;2022-11-04T00:47:29;11.50;99.90
52127;DHT22;38120;53.176;6.614;2022-11-04T00:49:55;11.40;99.90
52127;DHT22;38120;53.176;6.614;2022-11-04T00:52:21;11.30;99.90
52127;DHT22;38120;53.176;6.614;2022-11-04T00:54:47;11.30;99.90
52127;DHT22;38120;53.176;6.614;2022-11-04T00:57:13;11.20;99.90
52127;DHT22;38120;53.176;6.614;2022-11-04T00:59:39;11.30;99.90
52127;DHT22;38120;53.176;6.614;2022-11-04T01:02:07;11.20;99.90
52127;DHT22;38120;53.176;6.614;2022-11-04T01:04:33;11.20;99.90
52127;DHT22;38120;53.176;6.614;2022-11-04T01:06:59;11.10;99.90
52127;DHT22;38120;53.176;6.614;2022-11-04T01:09:25;11.20;99.90
52127;DHT22;38120;53.176;6.614;2022-11-04T01:11:51;11.00;99.90
52127;DHT22;38120;53.176;6.614;2022-11-04T01:14:18;11.10;99.90
52127;DHT22;38120;53.176;6.614;2022-11-04T01:16:44;11.00;99.90
52127;DHT22;38120;53.176;6.614;2022-11-04T01:19:10;10.90;99.90
52127;DHT22;38120;53.176;6.614;2022-11-04T01:21:36;11.00;99.90
52127;DHT22;38120;53.176;6.614;2022-11-04T01:24:02;10.90;99.90
52127;DHT22;38120;53.176;6.614;2022-11-04T01:26:29;10.90;99.90
52127;DHT22;38120;53.176;6.614;2022-11-04T01:28:56;10.90;99.90
52127;DHT22;38120;53.176;6.614;2022-11-04T01:31:22;10.90;99.90
52127;DHT22;38120;53.176;6.614;2022-11-04T01:33:49;10.90;99.90
52127;DHT22;38120;53.176;6.614;2022-11-04T01:36:15;10.90;99.90
52127;DHT22;38120;53.176;6.614;2022-11-04T01:38:41;10.90;99.90
52127;DHT22;38120;53.176;6.614;2022-11-04T01:41:09;10.80;99.90
52127;DHT22;38120;53.176;6.614;2022-11-04T01:43:56;10.90;99.90
52127;DHT22;38120;53.176;6.614;2022-11-04T01:46:39;10.90;99.90
52127;DHT22;38120;53.176;6.614;2022-11-04T01:49:18;10.90;99.90
52127;DHT22;38120;53.176;6.614;2022-11-04T01:51:48;10.80;99.90
52127;DHT22;38120;53.176;6.614;2022-11-04T01:54:15;11.10;99.90
52127;DHT22;38120;53.176;6.614;2022-11-04T01:56:41;10.90;99.90
52127;DHT22;38120;53.176;6.614;2022-11-04T01:59:15;10.90;99.90
52127;DHT22;38120;53.176;6.614;2022-11-04T02:01:42;10.90;99.90
52127;DHT22;38120;53.176;6.614;2022-11-04T02:04:08;10.90;99.90
52127;DHT22;38120;53.176;6.614;2022-11-04T02:06:52;10.80;99.90
52127;DHT22;38120;53.176;6.614;2022-11-04T02:09:19;10.90;99.90
52127;DHT22;38120;53.176;6.614;2022-11-04T02:11:45;10.80;99.90
52127;DHT22;38120;53.176;6.614;2022-11-04T02:14:30;10.90;99.90
52127;DHT22;38120;53.176;6.614;2022-11-04T02:17:18;10.90;99.90
52127;DHT22;38120;53.176;6.614;2022-11-04T02:22:51;10.80;99.90
52127;DHT22;38120;53.176;6.614;2022-11-04T02:31:14;10.80;99.90
52127;DHT22;38120;53.176;6.614;2022-11-04T02:33:52;10.80;99.90
52127;DHT22;38120;53.176;6.614;2022-11-04T02:39:32;10.80;99.90
52127;DHT22;38120;53.176;6.614;2022-11-04T02:42:08;10.70;99.90
52127;DHT22;38120;53.176;6.614;2022-11-04T02:44:49;10.70;99.90
52127;DHT22;38120;53.176;6.614;2022-11-04T02:47:21;10.80;99.90
52127;DHT22;38120;53.176;6.614;2022-11-04T02:49:59;11.00;99.90
52127;DHT22;38120;53.176;6.614;2022-11-04T02:52:58;10.70;99.90
52127;DHT22;38120;53.176;6.614;2022-11-04T02:55:34;10.70;99.90
52127;DHT22;38120;53.176;6.614;2022-11-04T02:58:05;10.70;99.90
52127;DHT22;38120;53.176;6.614;2022-11-04T03:00:33;10.60;99.90
52127;DHT22;38120;53.176;6.614;2022-11-04T03:03:12;10.60;99.90
52127;DHT22;38120;53.176;6.614;2022-11-04T03:05:43;10.60;99.90
52127;DHT22;38120;53.176;6.614;2022-11-04T03:08:17;10.60;99.90
52127;DHT22;38120;53.176;6.614;2022-11-04T03:10:49;10.60;99.90
52127;DHT22;38120;53.176;6.614;2022-11-04T03:13:21;10.70;99.90
52127;DHT22;38120;53.176;6.614;2022-11-04T03:16:02;10.60;99.90
52127;DHT22;38120;53.176;6.614;2022-11-04T03:18:35;10.70;99.90
52127;DHT22;38120;53.176;6.614;2022-11-04T03:21:04;10.70;99.90
52127;DHT22;38120;53.176;6.614;2022-11-04T03:23:31;10.60;99.90
52127;DHT22;38120;53.176;6.614;2022-11-04T03:26:08;10.70;99.90
52127;DHT22;38120;53.176;6.614;2022-11-04T03:29:06;10.60;99.90
52127;DHT22;38120;53.176;6.614;2022-11-04T03:34:29;10.70;99.90
52127;DHT22;38120;53.176;6.614;2022-11-04T03:36:55;10.90;99.90
52127;DHT22;38120;53.176;6.614;2022-11-04T03:39:21;10.70;99.90
52127;DHT22;38120;53.176;6.614;2022-11-04T03:41:51;10.70;99.90
52127;DHT22;38120;53.176;6.614;2022-11-04T03:44:17;10.70;99.90
52127;DHT22;38120;53.176;6.614;2022-11-04T03:46:43;10.70;99.90
52127;DHT22;38120;53.176;6.614;2022-11-04T03:49:10;10.70;99.90
52127;DHT22;38120;53.176;6.614;2022-11-04T03:51:36;10.70;99.90
52127;DHT22;38120;53.176;6.614;2022-11-04T03:54:02;10.70;99.90
52127;DHT22;38120;53.176;6.614;2022-11-04T03:56:39;10.70;99.90
52127;DHT22;38120;53.176;6.614;2022-11-04T03:59:42;10.70;99.90
52127;DHT22;38120;53.176;6.614;2022-11-04T04:07:45;10.80;99.90
52127;DHT22;38120;53.176;6.614;2022-11-04T04:10:32;10.70;99.90
52127;DHT22;38120;53.176;6.614;2022-11-04T04:18:57;10.70;99.90
52127;DHT22;38120;53.176;6.614;2022-11-04T04:22:08;10.70;99.90
52127;DHT22;38120;53.176;6.614;2022-11-04T04:24:14;10.80;99.90
52127;DHT22;38120;53.176;6.614;2022-11-04T04:26:59;10.80;99.90
52127;DHT22;38120;53.176;6.614;2022-11-04T04:29:44;10.70;99.90
52127;DHT22;38120;53.176;6.614;2022-11-04T04:32:12;10.80;99.90
52127;DHT22;38120;53.176;6.614;2022-11-04T04:34:38;10.80;99.90
52127;DHT22;38120;53.176;6.614;2022-11-04T04:37:18;10.70;99.90
52127;DHT22;38120;53.176;6.614;2022-11-04T04:39:51;10.70;99.90
52127;DHT22;38120;53.176;6.614;2022-11-04T04:42:37;10.60;99.90
52127;DHT22;38120;53.176;6.614;2022-11-04T04:45:26;10.60;99.90
52127;DHT22;38120;53.176;6.614;2022-11-04T04:47:53;10.60;99.90
52127;DHT22;38120;53.176;6.614;2022-11-04T04:50:20;10.60;99.90
52127;DHT22;38120;53.176;6.614;2022-11-04T04:52:51;10.50;99.90
52127;DHT22;38120;53.176;6.614;2022-11-04T04:55:17;10.50;99.90
52127;DHT22;38120;53.176;6.614;2022-11-04T04:57:44;10.50;99.90
52127;DHT22;38120;53.176;6.614;2022-11-04T05:00:19;10.50;99.90
52127;DHT22;38120;53.176;6.614;2022-11-04T05:02:46;10.50;99.90
52127;DHT22;38120;53.176;6.614;2022-11-04T05:05:12;10.40;99.90
52127;DHT22;38120;53.176;6.614;2022-11-04T05:07:38;10.80;99.90
52127;DHT22;38120;53.176;6.614;2022-11-04T05:10:05;10.40;99.90
52127;DHT22;38120;53.176;6.614;2022-11-04T05:12:33;10.40;99.90
52127;DHT22;38120;53.176;6.614;2022-11-04T05:15:18;10.30;99.90
52127;DHT22;38120;53.176;6.614;2022-11-04T05:17:43;10.30;99.90
52127;DHT22;38120;53.176;6.614;2022-11-04T05:20:09;10.30;99.90
52127;DHT22;38120;53.176;6.614;2022-11-04T05:22:35;10.20;99.90
52127;DHT22;38120;53.176;6.614;2022-11-04T05:25:01;10.20;99.90
52127;DHT22;38120;53.176;6.614;2022-11-04T05:27:26;10.20;99.90
52127;DHT22;38120;53.176;6.614;2022-11-04T05:29:52;10.20;99.90
52127;DHT22;38120;53.176;6.614;2022-11-04T05:32:18;10.20;99.90
52127;DHT22;38120;53.176;6.614;2022-11-04T05:34:43;10.10;99.90
52127;DHT22;38120;53.176;6.614;2022-11-04T05:37:09;10.10;99.90
52127;DHT22;38120;53.176;6.614;2022-11-04T05:39:34;10.40;99.90
52127;DHT22;38120;53.176;6.614;2022-11-04T05:42:00;10.20;99.90
52127;DHT22;38120;53.176;6.614;2022-11-04T05:44:26;10.10;99.90
52127;DHT22;38120;53.176;6.614;2022-11-04T05:46:51;10.00;99.90
52127;DHT22;38120;53.176;6.614;2022-11-04T05:49:18;10.00;99.90
52127;DHT22;38120;53.176;6.614;2022-11-04T05:51:44;10.00;99.90
52127;DHT22;38120;53.176;6.614;2022-11-04T05:54:09;10.00;99.90
52127;DHT22;38120;53.176;6.614;2022-11-04T05:56:35;9.90;99.90
52127;DHT22;38120;53.176;6.614;2022-11-04T05:59:01;9.90;99.90
52127;DHT22;38120;53.176;6.614;2022-11-04T06:01:31;9.90;99.90
52127;DHT22;38120;53.176;6.614;2022-11-04T06:03:59;9.80;99.90
52127;DHT22;38120;53.176;6.614;2022-11-04T06:06:27;9.80;99.90
52127;DHT22;38120;53.176;6.614;2022-11-04T06:08:53;9.80;99.90
52127;DHT22;38120;53.176;6.614;2022-11-04T06:11:20;9.80;99.90
52127;DHT22;38120;53.176;6.614;2022-11-04T06:13:45;9.80;99.90
52127;DHT22;38120;53.176;6.614;2022-11-04T06:16:11;9.80;99.90
52127;DHT22;38120;53.176;6.614;2022-11-04T06:18:37;9.80;99.90
52127;DHT22;38120;53.176;6.614;2022-11-04T06:21:30;9.80;99.90
52127;DHT22;38120;53.176;6.614;2022-11-04T06:23:57;9.80;99.90
52127;DHT22;38120;53.176;6.614;2022-11-04T06:26:27;9.80;99.90
52127;DHT22;38120;53.176;6.614;2022-11-04T06:28:53;9.80;99.90
52127;DHT22;38120;53.176;6.614;2022-11-04T06:31:20;9.80;99.90
52127;DHT22;38120;53.176;6.614;2022-11-04T06:33:45;9.90;99.90
52127;DHT22;38120;53.176;6.614;2022-11-04T06:36:13;9.70;99.90
52127;DHT22;38120;53.176;6.614;2022-11-04T06:38:39;9.70;99.90
52127;DHT22;38120;53.176;6.614;2022-11-04T06:41:07;9.70;99.90
52127;DHT22;38120;53.176;6.614;2022-11-04T06:43:33;9.70;99.90
52127;DHT22;38120;53.176;6.614;2022-11-04T06:46:00;9.70;99.90
52127;DHT22;38120;53.176;6.614;2022-11-04T06:48:27;9.70;99.90
52127;DHT22;38120;53.176;6.614;2022-11-04T06:50:56;9.60;99.90
52127;DHT22;38120;53.176;6.614;2022-11-04T06:53:22;9.60;99.90
52127;DHT22;38120;53.176;6.614;2022-11-04T06:55:48;9.50;99.90
52127;DHT22;38120;53.176;6.614;2022-11-04T06:58:15;9.50;99.90
52127;DHT22;38120;53.176;6.614;2022-11-04T07:00:41;9.50;99.90
52127;DHT22;38120;53.176;6.614;2022-11-04T07:03:08;9.50;99.90
52127;DHT22;38120;53.176;6.614;2022-11-04T07:05:34;9.40;99.90
52127;DHT22;38120;53.176;6.614;2022-11-04T07:08:00;9.60;99.90
52127;DHT22;38120;53.176;6.614;2022-11-04T07:10:26;9.50;99.90
52127;DHT22;38120;53.176;6.614;2022-11-04T07:12:51;9.50;99.90
52127;DHT22;38120;53.176;6.614;2022-11-04T07:15:19;9.50;99.90
52127;DHT22;38120;53.176;6.614;2022-11-04T07:17:45;9.50;99.90
52127;DHT22;38120;53.176;6.614;2022-11-04T07:20:10;9.50;99.90
52127;DHT22;38120;53.176;6.614;2022-11-04T07:22:38;9.50;99.90
52127;DHT22;38120;53.176;6.614;2022-11-04T07:25:04;9.50;99.90
52127;DHT22;38120;53.176;6.614;2022-11-04T07:27:30;9.50;99.90
52127;DHT22;38120;53.176;6.614;2022-11-04T07:29:55;9.50;99.90
52127;DHT22;38120;53.176;6.614;2022-11-04T07:32:21;9.40;99.90
52127;DHT22;38120;53.176;6.614;2022-11-04T07:34:47;9.60;99.90
52127;DHT22;38120;53.176;6.614;2022-11-04T07:37:13;9.50;99.90
52127;DHT22;38120;53.176;6.614;2022-11-04T07:39:38;9.50;99.90
52127;DHT22;38120;53.176;6.614;2022-11-04T07:42:06;9.50;99.90
52127;DHT22;38120;53.176;6.614;2022-11-04T07:44:32;9.60;99.90
52127;DHT22;38120;53.176;6.614;2022-11-04T07:46:58;9.60;99.90
52127;DHT22;38120;53.176;6.614;2022-11-04T07:49:24;9.50;99.90
52127;DHT22;38120;53.176;6.614;2022-11-04T07:51:50;9.60;99.90
52127;DHT22;38120;53.176;6.614;2022-11-04T07:54:16;9.60;99.90
52127;DHT22;38120;53.176;6.614;2022-11-04T07:56:41;9.60;99.90
52127;DHT22;38120;53.176;6.614;2022-11-04T07:59:07;9.70;99.90
52127;DHT22;38120;53.176;6.614;2022-11-04T08:01:33;9.70;99.90
52127;DHT22;38120;53.176;6.614;2022-11-04T08:03:59;10.40;99.90
52127;DHT22;38120;53.176;6.614;2022-11-04T08:06:24;9.70;99.90
52127;DHT22;38120;53.176;6.614;2022-11-04T08:08:50;9.70;99.90
52127;DHT22;38120;53.176;6.614;2022-11-04T08:11:20;10.00;99.90
52127;DHT22;38120;53.176;6.614;2022-11-04T08:13:48;9.80;99.90
52127;DHT22;38120;53.176;6.614;2022-11-04T08:16:16;9.90;99.90
52127;DHT22;38120;53.176;6.614;2022-11-04T08:18:42;9.80;99.90
52127;DHT22;38120;53.176;6.614;2022-11-04T08:21:09;10.00;99.90
52127;DHT22;38120;53.176;6.614;2022-11-04T08:23:35;10.00;99.90
52127;DHT22;38120;53.176;6.614;2022-11-04T08:26:05;10.00;99.90
52127;DHT22;38120;53.176;6.614;2022-11-04T08:28:31;10.10;99.90
52127;DHT22;38120;53.176;6.614;2022-11-04T08:31:04;10.20;99.90
52127;DHT22;38120;53.176;6.614;2022-11-04T08:33:31;10.10;99.90
52127;DHT22;38120;53.176;6.614;2022-11-04T08:36:04;10.20;99.90
52127;DHT22;38120;53.176;6.614;2022-11-04T08:38:31;10.20;99.90
52127;DHT22;38120;53.176;6.614;2022-11-04T08:41:02;10.20;99.90
52127;DHT22;38120;53.176;6.614;2022-11-04T08:43:28;10.20;99.90
52127;DHT22;38120;53.176;6.614;2022-11-04T08:45:54;10.30;99.90
52127;DHT22;38120;53.176;6.614;2022-11-04T08:48:20;10.30;99.90
52127;DHT22;38120;53.176;6.614;2022-11-04T08:50:53;10.20;99.90
52127;DHT22;38120;53.176;6.614;2022-11-04T08:53:19;10.30;99.90
52127;DHT22;38120;53.176;6.614;2022-11-04T08:55:45;10.40;99.90
52127;DHT22;38120;53.176;6.614;2022-11-04T08:58:11;10.40;99.90
52127;DHT22;38120;53.176;6.614;2022-11-04T09:00:37;10.50;99.90
52127;DHT22;38120;53.176;6.614;2022-11-04T09:03:03;10.60;99.90
52127;DHT22;38120;53.176;6.614;2022-11-04T09:05:29;10.50;99.90
52127;DHT22;38120;53.176;6.614;2022-11-04T09:07:55;10.50;99.90
52127;DHT22;38120;53.176;6.614;2022-11-04T09:10:21;10.60;99.90
52127;DHT22;38120;53.176;6.614;2022-11-04T09:12:47;10.70;99.90
52127;DHT22;38120;53.176;6.614;2022-11-04T09:15:12;10.70;99.90
52127;DHT22;38120;53.176;6.614;2022-11-04T09:17:38;10.70;99.90
52127;DHT22;38120;53.176;6.614;2022-11-04T09:20:05;10.70;99.90
52127;DHT22;38120;53.176;6.614;2022-11-04T09:22:31;10.90;99.90
52127;DHT22;38120;53.176;6.614;2022-11-04T09:24:56;10.80;99.90
52127;DHT22;38120;53.176;6.614;2022-11-04T09:27:22;10.90;99.90
52127;DHT22;38120;53.176;6.614;2022-11-04T09:29:48;11.00;99.90
52127;DHT22;38120;53.176;6.614;2022-11-04T09:32:14;11.00;99.90
52127;DHT22;38120;53.176;6.614;2022-11-04T09:34:40;11.00;99.90
52127;DHT22;38120;53.176;6.614;2022-11-04T09:37:05;11.10;99.90
52127;DHT22;38120;53.176;6.614;2022-11-04T09:39:31;11.10;99.90
52127;DHT22;38120;53.176;6.614;2022-11-04T09:44:55;11.30;99.90
52127;DHT22;38120;53.176;6.614;2022-11-04T09:47:23;11.30;99.90
52127;DHT22;38120;53.176;6.614;2022-11-04T09:49:53;11.30;99.90
52127;DHT22;38120;53.176;6.614;2022-11-04T09:52:40;11.60;99.90
52127;DHT22;38120;53.176;6.614;2022-11-04T09:55:31;11.40;99.90
52127;DHT22;38120;53.176;6.614;2022-11-04T09:57:59;11.50;99.90
52127;DHT22;38120;53.176;6.614;2022-11-04T10:00:25;11.60;99.90
52127;DHT22;38120;53.176;6.614;2022-11-04T10:05:51;11.50;99.90
52127;DHT22;38120;53.176;6.614;2022-11-04T10:08:41;11.60;99.90
52127;DHT22;38120;53.176;6.614;2022-11-04T10:11:33;11.60;99.90
52127;DHT22;38120;53.176;6.614;2022-11-04T10:17:07;10.80;99.90
52127;DHT22;38120;53.176;6.614;2022-11-04T10:27:28;11.90;99.90
52127;DHT22;38120;53.176;6.614;2022-11-04T10:30:19;11.90;99.90
52127;DHT22;38120;53.176;6.614;2022-11-04T10:33:14;12.10;99.90
52127;DHT22;38120;53.176;6.614;2022-11-04T10:36:02;12.10;99.90
52127;DHT22;38120;53.176;6.614;2022-11-04T10:40:54;12.20;99.90
52127;DHT22;38120;53.176;6.614;2022-11-04T10:43:34;12.20;99.90
52127;DHT22;38120;53.176;6.614;2022-11-04T10:48:49;12.20;99.90
52127;DHT22;38120;53.176;6.614;2022-11-04T10:51:16;13.40;99.90
52127;DHT22;38120;53.176;6.614;2022-11-04T10:53:58;12.30;99.90
52127;DHT22;38120;53.176;6.614;2022-11-04T10:56:41;12.30;99.90
52127;DHT22;38120;53.176;6.614;2022-11-04T10:59:22;12.30;99.90
52127;DHT22;38120;53.176;6.614;2022-11-04T11:02:00;12.30;99.90
52127;DHT22;38120;53.176;6.614;2022-11-04T11:04:27;12.40;99.90
52127;DHT22;38120;53.176;6.614;2022-11-04T11:06:54;12.50;99.90
52127;DHT22;38120;53.176;6.614;2022-11-04T11:09:25;12.50;99.90
52127;DHT22;38120;53.176;6.614;2022-11-04T11:11:56;12.50;99.90
52127;DHT22;38120;53.176;6.614;2022-11-04T11:16:53;12.50;99.90
52127;DHT22;38120;53.176;6.614;2022-11-04T11:19:21;12.50;99.90
52127;DHT22;38120;53.176;6.614;2022-11-04T11:21:53;12.50;99.90
52127;DHT22;38120;53.176;6.614;2022-11-04T11:26:45;12.80;99.90
52127;DHT22;38120;53.176;6.614;2022-11-04T11:31:47;12.90;99.90
52127;DHT22;38120;53.176;6.614;2022-11-04T11:34:24;12.90;99.90
52127;DHT22;38120;53.176;6.614;2022-11-04T11:36:53;12.90;99.90
52127;DHT22;38120;53.176;6.614;2022-11-04T11:39:22;12.90;99.90
52127;DHT22;38120;53.176;6.614;2022-11-04T11:45:12;13.30;99.90
52127;DHT22;38120;53.176;6.614;2022-11-04T11:47:22;13.30;99.90
52127;DHT22;38120;53.176;6.614;2022-11-04T11:52:44;13.20;99.90
52127;DHT22;38120;53.176;6.614;2022-11-04T11:55:33;13.10;99.90
52127;DHT22;38120;53.176;6.614;2022-11-04T11:58:24;13.00;99.90
52127;DHT22;38120;53.176;6.614;2022-11-04T12:03:32;12.50;99.90
52127;DHT22;38120;53.176;6.614;2022-11-04T12:06:25;12.30;99.90
52127;DHT22;38120;53.176;6.614;2022-11-04T12:09:02;12.20;99.90
52127;DHT22;38120;53.176;6.614;2022-11-04T12:11:34;12.20;99.90
52127;DHT22;38120;53.176;6.614;2022-11-04T12:14:08;12.20;99.90
52127;DHT22;38120;53.176;6.614;2022-11-04T12:16:57;12.20;99.90
52127;DHT22;38120;53.176;6.614;2022-11-04T12:30:20;12.00;99.90
52127;DHT22;38120;53.176;6.614;2022-11-04T12:41:47;11.90;99.90
52127;DHT22;38120;53.176;6.614;2022-11-04T12:44:26;11.90;99.90
52127;DHT22;38120;53.176;6.614;2022-11-04T12:50:03;10.90;99.90
52127;DHT22;38120;53.176;6.614;2022-11-04T13:00:23;11.90;99.90
52127;DHT22;38120;53.176;6.614;2022-11-04T13:02:56;12.00;99.90
52127;DHT22;38120;53.176;6.614;2022-11-04T13:13:24;12.30;99.90
52127;DHT22;38120;53.176;6.614;2022-11-04T13:15:57;13.00;99.90
52127;DHT22;38120;53.176;6.614;2022-11-04T13:18:25;12.60;99.90
52127;DHT22;38120;53.176;6.614;2022-11-04T13:21:09;12.60;99.90
52127;DHT22;38120;53.176;6.614;2022-11-04T13:23:39;12.50;99.90
52127;DHT22;38120;53.176;6.614;2022-11-04T13:26:11;12.60;99.90
52127;DHT22;38120;53.176;6.614;2022-11-04T13:28:40;12.50;99.90
52127;DHT22;38120;53.176;6.614;2022-11-04T13:34:05;12.50;99.90
52127;DHT22;38120;53.176;6.614;2022-11-04T13:39:26;12.40;99.90
52127;DHT22;38120;53.176;6.614;2022-11-04T13:45:03;12.40;99.90
52127;DHT22;38120;53.176;6.614;2022-11-04T13:50:32;11.70;99.90
52127;DHT22;38120;53.176;6.614;2022-11-04T13:53:00;12.50;99.90
52127;DHT22;38120;53.176;6.614;2022-11-04T13:55:26;12.50;99.90
52127;DHT22;38120;53.176;6.614;2022-11-04T13:58:02;12.50;99.90
52127;DHT22;38120;53.176;6.614;2022-11-04T14:00:34;12.60;99.90
52127;DHT22;38120;53.176;6.614;2022-11-04T14:06:01;12.70;99.90
52127;DHT22;38120;53.176;6.614;2022-11-04T14:08:28;12.60;99.90
52127;DHT22;38120;53.176;6.614;2022-11-04T14:11:10;12.70;99.90
52127;DHT22;38120;53.176;6.614;2022-11-04T14:13:41;12.70;99.90
52127;DHT22;38120;53.176;6.614;2022-11-04T14:16:09;12.80;99.90
52127;DHT22;38120;53.176;6.614;2022-11-04T14:18:40;12.90;99.90
52127;DHT22;38120;53.176;6.614;2022-11-04T14:21:11;12.90;99.90
52127;DHT22;38120;53.176;6.614;2022-11-04T14:23:39;12.90;99.90
52127;DHT22;38120;53.176;6.614;2022-11-04T14:26:10;12.90;99.90
52127;DHT22;38120;53.176;6.614;2022-11-04T14:28:38;12.50;99.90
52127;DHT22;38120;53.176;6.614;2022-11-04T14:31:07;11.30;99.90
52127;DHT22;38120;53.176;6.614;2022-11-04T14:33:39;12.20;99.90
52127;DHT22;38120;53.176;6.614;2022-11-04T14:39:06;12.00;99.90
52127;DHT22;38120;53.176;6.614;2022-11-04T14:44:12;11.90;99.90
52127;DHT22;38120;53.176;6.614;2022-11-04T14:46:45;11.70;99.90
52127;DHT22;38120;53.176;6.614;2022-11-04T14:49:39;11.60;99.90
52127;DHT22;38120;53.176;6.614;2022-11-04T14:52:28;11.60;99.90
52127;DHT22;38120;53.176;6.614;2022-11-04T14:57:37;11.50;99.90
52127;DHT22;38120;53.176;6.614;2022-11-04T15:00:33;11.40;99.90
52127;DHT22;38120;53.176;6.614;2022-11-04T15:05:51;11.40;99.90
52127;DHT22;38120;53.176;6.614;2022-11-04T15:08:34;11.40;99.90
52127;DHT22;38120;53.176;6.614;2022-11-04T15:11:29;11.20;99.90
52127;DHT22;38120;53.176;6.614;2022-11-04T15:14:20;11.20;99.90
52127;DHT22;38120;53.176;6.614;2022-11-04T15:16:49;11.20;99.90
52127;DHT22;38120;53.176;6.614;2022-11-04T15:19:27;11.10;99.90
52127;DHT22;38120;53.176;6.614;2022-11-04T15:21:53;11.10;99.90
52127;DHT22;38120;53.176;6.614;2022-11-04T15:24:19;11.00;99.90
52127;DHT22;38120;53.176;6.614;2022-11-04T15:26:54;10.90;99.90
52127;DHT22;38120;53.176;6.614;2022-11-04T15:29:23;11.00;99.90
52127;DHT22;38120;53.176;6.614;2022-11-04T15:31:55;10.80;99.90
52127;DHT22;38120;53.176;6.614;2022-11-04T15:34:24;10.80;99.90
52127;DHT22;38120;53.176;6.614;2022-11-04T15:36:54;10.70;99.90
52127;DHT22;38120;53.176;6.614;2022-11-04T15:41:51;10.70;99.90
52127;DHT22;38120;53.176;6.614;2022-11-04T15:44:37;10.60;99.90
52127;DHT22;38120;53.176;6.614;2022-11-04T15:47:29;10.60;99.90
52127;DHT22;38120;53.176;6.614;2022-11-04T15:50:02;10.50;99.90
52127;DHT22;38120;53.176;6.614;2022-11-04T15:52:47;10.40;99.90
52127;DHT22;38120;53.176;6.614;2022-11-04T15:55:20;10.30;99.90
52127;DHT22;38120;53.176;6.614;2022-11-04T15:57:47;10.30;99.90
52127;DHT22;38120;53.176;6.614;2022-11-04T16:02:59;10.20;99.90
52127;DHT22;38120;53.176;6.614;2022-11-04T16:05:27;10.10;99.90
52127;DHT22;38120;53.176;6.614;2022-11-04T16:07:55;10.00;99.90
52127;DHT22;38120;53.176;6.614;2022-11-04T16:10:38;10.00;99.90
52127;DHT22;38120;53.176;6.614;2022-11-04T16:21:03;9.60;99.90
52127;DHT22;38120;53.176;6.614;2022-11-04T16:23:29;9.60;99.90
52127;DHT22;38120;53.176;6.614;2022-11-04T16:26:00;9.60;99.90
52127;DHT22;38120;53.176;6.614;2022-11-04T16:28:36;9.50;99.90
52127;DHT22;38120;53.176;6.614;2022-11-04T16:31:32;9.40;99.90
52127;DHT22;38120;53.176;6.614;2022-11-04T16:33:59;9.40;99.90
52127;DHT22;38120;53.176;6.614;2022-11-04T16:36:25;10.10;99.90
52127;DHT22;38120;53.176;6.614;2022-11-04T16:41:17;9.30;99.90
52127;DHT22;38120;53.176;6.614;2022-11-04T16:43:44;9.10;99.90
52127;DHT22;38120;53.176;6.614;2022-11-04T16:46:11;9.10;99.90
52127;DHT22;38120;53.176;6.614;2022-11-04T16:48:39;9.10;99.90
52127;DHT22;38120;53.176;6.614;2022-11-04T16:51:05;9.00;99.90
52127;DHT22;38120;53.176;6.614;2022-11-04T16:53:31;9.00;99.90
52127;DHT22;38120;53.176;6.614;2022-11-04T16:55:57;8.90;99.90
52127;DHT22;38120;53.176;6.614;2022-11-04T16:58:22;8.90;99.90
52127;DHT22;38120;53.176;6.614;2022-11-04T17:00:48;8.80;99.90
52127;DHT22;38120;53.176;6.614;2022-11-04T17:03:18;9.00;99.90
52127;DHT22;38120;53.176;6.614;2022-11-04T17:05:55;8.80;99.90
52127;DHT22;38120;53.176;6.614;2022-11-04T17:08:25;8.80;99.90
52127;DHT22;38120;53.176;6.614;2022-11-04T17:10:51;8.70;99.90
52127;DHT22;38120;53.176;6.614;2022-11-04T17:13:17;8.80;99.90
52127;DHT22;38120;53.176;6.614;2022-11-04T17:15:43;8.60;99.90
52127;DHT22;38120;53.176;6.614;2022-11-04T17:18:13;8.60;99.90
52127;DHT22;38120;53.176;6.614;2022-11-04T17:20:40;8.50;99.90
52127;DHT22;38120;53.176;6.614;2022-11-04T17:23:07;8.50;99.90
52127;DHT22;38120;53.176;6.614;2022-11-04T17:25:33;8.60;99.90
52127;DHT22;38120;53.176;6.614;2022-11-04T17:27:59;8.00;99.90
52127;DHT22;38120;53.176;6.614;2022-11-04T17:30:24;8.50;99.90
52127;DHT22;38120;53.176;6.614;2022-11-04T17:32:50;8.50;99.90
52127;DHT22;38120;53.176;6.614;2022-11-04T17:35:16;8.50;99.90
52127;DHT22;38120;53.176;6.614;2022-11-04T17:37:42;8.40;99.90
52127;DHT22;38120;53.176;6.614;2022-11-04T17:40:14;8.40;99.90
52127;DHT22;38120;53.176;6.614;2022-11-04T17:42:41;8.40;99.90
52127;DHT22;38120;53.176;6.614;2022-11-04T17:45:25;8.30;99.90
52127;DHT22;38120;53.176;6.614;2022-11-04T17:47:51;8.40;99.90
52127;DHT22;38120;53.176;6.614;2022-11-04T17:50:17;8.40;99.90
52127;DHT22;38120;53.176;6.614;2022-11-04T17:52:43;8.30;99.90
52127;DHT22;38120;53.176;6.614;2022-11-04T17:55:10;8.30;99.90
52127;DHT22;38120;53.176;6.614;2022-11-04T17:57:35;8.40;99.90
52127;DHT22;38120;53.176;6.614;2022-11-04T18:00:02;8.30;99.90
52127;DHT22;38120;53.176;6.614;2022-11-04T18:02:31;8.30;99.90
52127;DHT22;38120;53.176;6.614;2022-11-04T18:04:56;8.20;99.90
52127;DHT22;38120;53.176;6.614;2022-11-04T18:07:22;8.30;99.90
52127;DHT22;38120;53.176;6.614;2022-11-04T18:09:48;8.20;99.90
52127;DHT22;38120;53.176;6.614;2022-11-04T18:12:14;8.10;99.90
52127;DHT22;38120;53.176;6.614;2022-11-04T18:14:58;8.10;99.90
52127;DHT22;38120;53.176;6.614;2022-11-04T18:17:24;8.10;99.90
52127;DHT22;38120;53.176;6.614;2022-11-04T18:19:51;8.00;99.90
52127;DHT22;38120;53.176;6.614;2022-11-04T18:22:16;8.00;99.90